Time;durP1;ratioP1;P1;durP2;ratioP2;P2;SDS_P1;SDS_P2;PMS_P1;PMS_P2;Temp;Humidity;BMP_temperature;BMP_pressure;BME280_temperature;BME280_humidity;BME280_pressure;Samples;Min_cycle;Max_cycle;Signal;HPM_P1;HPM_P2
2023/09/19 00:03:42;;;;;;;0.10;0.10;;;;;;;-145.48;100.00;64539.38;5881123;30;20524;-94
2023/09/19 00:07:44;;;;;;;0.40;0.40;;;;;;;-145.48;100.00;64539.38;5872989;30;20059;-95
2023/09/19 00:11:47;;;;;;;0.20;0.20;;;;;;;-145.48;100.00;64539.38;5887181;30;20048;-94
2023/09/19 00:15:55;;;;;;;0.30;0.20;;;;;;;-145.48;100.00;64539.38;5881158;30;20044;-94
2023/09/19 00:19:56;;;;;;;0.30;0.30;;;;;;;-145.48;100.00;64539.38;5883352;30;20055;-94
2023/09/19 00:23:57;;;;;;;;;;;;;;;-145.48;100.00;64539.38;5865243;30;20052;-94
2023/09/19 00:27:58;;;;;;;0.88;0.68;;;;;;;-145.48;100.00;64539.38;5881966;30;19930;-95
2023/09/19 00:32:00;;;;;;;0.47;0.43;;;;;;;-145.48;100.00;64539.38;5867917;30;20370;-92
2023/09/19 00:36:04;;;;;;;0.20;0.20;;;;;;;-145.48;100.00;64539.38;5879386;30;20623;-93
2023/09/19 00:40:05;;;;;;;0.20;0.20;;;;;;;-145.48;100.00;64539.38;5876914;30;20106;-94
2023/09/19 00:44:06;;;;;;;0.20;0.20;;;;;;;-145.48;100.00;64539.38;5865676;30;20091;-93
2023/09/19 00:48:08;;;;;;;0.05;0.05;;;;;;;-145.48;100.00;64539.38;5875634;30;20499;-93
2023/09/19 00:52:11;;;;;;;0.40;0.30;;;;;;;-145.48;100.00;64539.38;5877196;30;20041;-92
2023/09/19 00:56:14;;;;;;;0.17;0.17;;;;;;;-145.48;100.00;64539.38;5874139;30;20068;-91
2023/09/19 01:00:15;;;;;;;0.10;0.10;;;;;;;-145.48;100.00;64539.38;5879409;30;20056;-92
2023/09/19 01:04:19;;;;;;;0.30;0.28;;;;;;;-145.48;100.00;64539.38;5866135;30;20440;-92
2023/09/19 01:08:19;;;;;;;1.25;0.55;;;;;;;-145.48;100.00;64539.38;5872236;30;20045;-93
2023/09/19 01:12:51;;;;;;;0.10;0.10;;;;;;;-145.48;100.00;64539.38;5869249;30;20048;-93
2023/09/19 01:17:09;;;;;;;0.20;0.20;;;;;;;-145.48;100.00;64539.38;5857595;30;20504;-95
2023/09/19 01:21:34;;;;;;;0.32;0.32;;;;;;;-145.48;100.00;64539.38;5869212;30;20040;-93
2023/09/19 01:25:47;;;;;;;0.38;0.32;;;;;;;-145.48;100.00;64539.38;5878354;30;20047;-92
2023/09/19 01:29:51;;;;;;;0.85;0.68;;;;;;;-145.48;100.00;64539.38;5860845;30;20067;-93
2023/09/19 01:34:04;;;;;;;0.43;0.40;;;;;;;-145.48;100.00;64539.38;5879119;30;20054;-95
2023/09/19 01:38:09;;;;;;;1.30;0.50;;;;;;;-145.48;100.00;64539.38;5879953;30;20064;-93
2023/09/19 01:42:24;;;;;;;0.40;0.40;;;;;;;-145.48;100.00;64539.38;5862877;30;20044;-93
2023/09/19 01:46:47;;;;;;;0.20;0.20;;;;;;;-145.48;100.00;64539.38;5854086;30;20052;-94
2023/09/19 01:50:58;;;;;;;0.82;0.82;;;;;;;-145.48;100.00;64539.38;5872898;30;20325;-93
2023/09/19 01:55:06;;;;;;;0.30;0.30;;;;;;;-145.48;100.00;64539.38;5877666;30;20511;-96
2023/09/19 01:59:17;;;;;;;0.45;0.35;;;;;;;-145.48;100.00;64539.38;5873486;30;20049;-96
2023/09/19 02:03:22;;;;;;;0.50;0.50;;;;;;;-145.48;100.00;64539.38;5868278;30;20413;-96
2023/09/19 02:07:23;;;;;;;0.55;0.20;;;;;;;-145.48;100.00;64539.38;5866432;30;20056;-96
2023/09/19 02:11:24;;;;;;;0.35;0.35;;;;;;;-145.48;100.00;64539.38;5873161;30;20515;-95
2023/09/19 02:15:24;;;;;;;1.55;0.80;;;;;;;-145.48;100.00;64539.38;5871040;30;20500;-96
2023/09/19 02:19:24;;;;;;;1.23;1.05;;;;;;;-145.48;100.00;64539.38;5868803;30;20539;-96
2023/09/19 02:23:26;;;;;;;0.40;0.40;;;;;;;-145.48;100.00;64539.38;5883009;30;20042;-96
2023/09/19 02:27:26;;;;;;;;;;;;;;;-145.48;100.00;64539.38;5879388;30;20402;-96
2023/09/19 02:31:29;;;;;;;0.23;0.23;;;;;;;-145.48;100.00;64539.38;5882725;30;20305;-96
2023/09/19 02:35:35;;;;;;;0.70;0.60;;;;;;;-145.48;100.00;64539.38;5865649;30;20057;-96
2023/09/19 02:39:39;;;;;;;0.52;0.38;;;;;;;-145.48;100.00;64539.38;5853006;30;20056;-96
2023/09/19 02:43:42;;;;;;;1.45;0.75;;;;;;;-145.48;100.00;64539.38;5886815;30;20056;-97
2023/09/19 02:47:47;;;;;;;2.72;0.70;;;;;;;-145.48;100.00;64539.38;5876907;30;20052;-96
2023/09/19 02:51:49;;;;;;;0.73;0.60;;;;;;;-145.48;100.00;64539.38;5868281;30;20415;-96
2023/09/19 02:55:53;;;;;;;0.60;0.60;;;;;;;-145.48;100.00;64539.38;5879775;30;20086;-94
2023/09/19 02:59:53;;;;;;;;;;;;;;;-145.48;100.00;64539.38;5885104;30;20165;-96
2023/09/19 03:03:54;;;;;;;1.55;1.08;;;;;;;-145.48;100.00;64539.38;5885198;30;19937;-96
2023/09/19 03:07:55;;;;;;;3.33;0.63;;;;;;;-145.48;100.00;64539.38;5889964;30;20032;-96
2023/09/19 03:11:56;;;;;;;0.75;0.47;;;;;;;-145.48;100.00;64539.38;5833992;30;20049;-96
2023/09/19 03:15:58;;;;;;;0.82;0.82;;;;;;;-145.48;100.00;64539.38;5772945;30;1289606;-96
2023/09/19 03:20:01;;;;;;;0.20;0.20;;;;;;;-145.48;100.00;64539.38;5847306;30;20064;-96
2023/09/19 03:24:02;;;;;;;0.45;0.30;;;;;;;-145.48;100.00;64539.38;5851656;30;20083;-96
2023/09/19 03:28:05;;;;;;;1.85;0.60;;;;;;;-145.48;100.00;64539.38;5842203;30;20060;-96
2023/09/19 03:32:06;;;;;;;0.20;0.20;;;;;;;-145.48;100.00;64539.38;5851071;30;20041;-96
2023/09/19 03:36:08;;;;;;;0.28;0.28;;;;;;;-145.48;100.00;64539.38;5834030;30;20238;-96
2023/09/19 03:40:10;;;;;;;0.30;0.30;;;;;;;-145.48;100.00;64539.38;5834037;30;20619;-96
2023/09/19 03:44:11;;;;;;;0.28;0.28;;;;;;;-145.48;100.00;64539.38;5831851;30;20053;-95
2023/09/19 03:48:11;;;;;;;0.15;0.15;;;;;;;-145.48;100.00;64539.38;5813002;30;20065;-95
2023/09/19 03:52:12;;;;;;;1.60;0.50;;;;;;;-145.48;100.00;64539.38;5824823;30;20049;-96
2023/09/19 03:56:16;;;;;;;;;;;;;;;-145.48;100.00;64539.38;5816487;30;20115;-95
2023/09/19 04:00:20;;;;;;;0.20;0.20;;;;;;;-145.48;100.00;64539.38;5831445;30;19927;-95
2023/09/19 04:04:24;;;;;;;0.70;0.50;;;;;;;-145.48;100.00;64539.38;5839619;30;20041;-94
2023/09/19 04:08:25;;;;;;;0.38;0.30;;;;;;;-145.48;100.00;64539.38;5845524;30;20523;-95
2023/09/19 04:12:26;;;;;;;0.45;0.30;;;;;;;-145.48;100.00;64539.38;5843623;30;20045;-95
2023/09/19 04:16:26;;;;;;;0.75;0.75;;;;;;;-145.48;100.00;64539.38;5823238;30;20140;-95
2023/09/19 04:20:28;;;;;;;0.38;0.38;;;;;;;-145.48;100.00;64539.38;5833939;30;20519;-95
2023/09/19 04:24:32;;;;;;;0.22;0.22;;;;;;;-145.48;100.00;64539.38;5827080;30;20049;-94
2023/09/19 04:28:34;;;;;;;0.47;0.47;;;;;;;-145.48;100.00;64539.38;5831795;30;20182;-95
2023/09/19 04:32:36;;;;;;;0.22;0.22;;;;;;;-145.48;100.00;64539.38;5830983;30;20052;-94
2023/09/19 04:36:36;;;;;;;0.30;0.30;;;;;;;-145.48;100.00;64539.38;5833569;30;20041;-94
2023/09/19 04:40:39;;;;;;;1.08;0.52;;;;;;;-145.48;100.00;64539.38;5846576;30;20050;-94
2023/09/19 04:44:40;;;;;;;0.50;0.38;;;;;;;-145.48;100.00;64539.38;5836518;30;20053;-94
2023/09/19 04:48:41;;;;;;;;;;;;;;;-145.48;100.00;64539.38;5831634;30;20049;-94
2023/09/19 04:52:42;;;;;;;0.65;0.65;;;;;;;-145.48;100.00;64539.38;5842417;30;19934;-94
2023/09/19 04:56:42;;;;;;;0.30;0.30;;;;;;;-145.48;100.00;64539.38;5842159;30;20520;-93
2023/09/19 05:00:43;;;;;;;0.50;0.30;;;;;;;-145.48;100.00;64539.38;5844318;30;20173;-94
2023/09/19 05:04:43;;;;;;;0.55;0.50;;;;;;;-145.48;100.00;64539.38;5841274;30;20047;-94
2023/09/19 05:08:45;;;;;;;0.55;0.50;;;;;;;-145.48;100.00;64539.38;5840207;30;20076;-93
2023/09/19 05:12:48;;;;;;;0.88;0.52;;;;;;;-145.48;100.00;64539.38;5824131;30;20464;-94
2023/09/19 05:16:49;;;;;;;1.00;0.82;;;;;;;-145.48;100.00;64539.38;5823670;30;20131;-93
2023/09/19 05:20:51;;;;;;;1.10;0.80;;;;;;;-145.48;100.00;64539.38;5845435;30;20045;-93
2023/09/19 05:24:52;;;;;;;0.50;0.50;;;;;;;-145.48;100.00;64539.38;5848347;30;20848;-93
2023/09/19 05:28:55;;;;;;;0.43;0.38;;;;;;;-145.48;100.00;64539.38;5832450;30;20394;-93
2023/09/19 05:32:55;;;;;;;0.98;0.50;;;;;;;-145.48;100.00;64539.38;5847972;30;20425;-93
2023/09/19 05:36:56;;;;;;;0.80;0.50;;;;;;;-145.48;100.00;64539.38;5831958;30;20052;-93
2023/09/19 05:40:58;;;;;;;0.63;0.63;;;;;;;-145.48;100.00;64539.38;5847913;30;20416;-93
2023/09/19 05:45:00;;;;;;;0.88;0.80;;;;;;;-145.48;100.00;64539.38;5847125;30;20052;-93
2023/09/19 05:49:07;;;;;;;0.13;0.13;;;;;;;-145.48;100.00;64539.38;5847827;30;20057;-92
2023/09/19 05:53:11;;;;;;;0.20;0.20;;;;;;;-145.48;100.00;64539.38;5840443;30;20082;-93
2023/09/19 05:57:13;;;;;;;0.60;0.47;;;;;;;-145.48;100.00;64539.38;5819252;30;20062;-93
2023/09/19 06:01:15;;;;;;;0.10;0.10;;;;;;;-145.48;100.00;64539.38;5841408;30;20189;-93
2023/09/19 06:05:15;;;;;;;0.10;0.10;;;;;;;-145.48;100.00;64539.38;5822950;30;20042;-92
2023/09/19 06:09:17;;;;;;;0.60;0.52;;;;;;;-145.48;100.00;64539.38;5819483;30;20057;-92
2023/09/19 06:13:19;;;;;;;0.00;0.00;;;;;;;-145.48;100.00;64539.38;5843307;30;20053;-92
2023/09/19 06:17:22;;;;;;;0.15;0.15;;;;;;;-145.48;100.00;64539.38;5825565;30;20111;-92
2023/09/19 06:21:23;;;;;;;0.03;0.03;;;;;;;-145.48;100.00;64539.38;5848536;30;20049;-92
2023/09/19 06:25:23;;;;;;;;;;;;;;;-145.48;100.00;64539.38;5846013;30;20513;-93
2023/09/19 06:29:24;;;;;;;0.50;0.50;;;;;;;-145.48;100.00;64539.38;5837352;30;20064;-93
2023/09/19 06:33:25;;;;;;;;;;;;;;;-145.48;100.00;64539.38;5848738;30;20053;-92
2023/09/19 06:37:29;;;;;;;0.33;0.20;;;;;;;-145.48;100.00;64539.38;5848196;30;20425;-92
2023/09/19 06:41:30;;;;;;;0.00;0.00;;;;;;;-145.48;100.00;64539.38;5847811;30;20052;-92
2023/09/19 06:45:36;;;;;;;0.30;0.30;;;;;;;-145.48;100.00;64539.38;5832510;30;20053;-91
2023/09/19 06:49:36;;;;;;;0.63;0.28;;;;;;;-145.48;100.00;64539.38;5841429;30;20517;-91
2023/09/19 06:53:37;;;;;;;;;;;;;;;-145.48;100.00;64539.38;5845079;30;20536;-92
2023/09/19 06:57:39;;;;;;;0.20;0.20;;;;;;;-145.48;100.00;64539.38;5832289;30;19931;-92
2023/09/19 07:01:40;;;;;;;0.10;0.10;;;;;;;-145.48;100.00;64539.38;5822528;30;20045;-91
2023/09/19 07:05:40;;;;;;;0.10;0.10;;;;;;;-145.48;100.00;64539.38;5840736;30;20163;-92
2023/09/19 07:09:42;;;;;;;0.10;0.10;;;;;;;-145.48;100.00;64539.38;5849036;30;20497;-91
2023/09/19 07:13:43;;;;;;;0.00;0.00;;;;;;;-145.48;100.00;64539.38;5828210;30;20373;-91
2023/09/19 07:17:45;;;;;;;1.73;0.20;;;;;;;-145.48;100.00;64539.38;5813075;30;20087;-91
2023/09/19 07:21:47;;;;;;;0.00;0.00;;;;;;;-145.48;100.00;64539.38;5837089;30;20054;-92
2023/09/19 07:25:48;;;;;;;0.00;0.00;;;;;;;-145.48;100.00;64539.38;5843934;30;20556;-92
2023/09/19 07:29:49;;;;;;;0.55;0.13;;;;;;;-145.48;100.00;64539.38;5843585;30;20045;-91
2023/09/19 07:33:53;;;;;;;0.03;0.03;;;;;;;-145.48;100.00;64539.38;5848474;30;21696;-92
2023/09/19 07:37:54;;;;;;;0.00;0.00;;;;;;;-145.48;100.00;64539.38;5848603;30;20053;-91
2023/09/19 07:42:01;;;;;;;0.00;0.00;;;;;;;-145.48;100.00;64539.38;5847468;30;20406;-92
2023/09/19 07:46:09;;;;;;;0.30;0.30;;;;;;;-145.48;100.00;64539.38;5850332;30;20549;-90
2023/09/19 07:50:11;;;;;;;0.10;0.10;;;;;;;-145.48;100.00;64539.38;5842351;30;20046;-91
2023/09/19 07:54:12;;;;;;;0.03;0.03;;;;;;;-145.48;100.00;64539.38;5848418;30;20128;-92
2023/09/19 07:58:13;;;;;;;0.00;0.00;;;;;;;-145.48;100.00;64539.38;5844690;30;20045;-91
2023/09/19 08:02:16;;;;;;;0.00;0.00;;;;;;;-145.48;100.00;64539.38;5844694;30;20049;-92
2023/09/19 08:06:16;;;;;;;0.00;0.00;;;;;;;-145.48;100.00;64539.38;5832486;30;20429;-91
2023/09/19 08:10:18;;;;;;;0.00;0.00;;;;;;;-145.48;100.00;64539.38;5845576;30;20049;-92
2023/09/19 08:14:19;;;;;;;0.00;0.00;;;;;;;-145.48;100.00;64539.38;5840259;30;20559;-92
2023/09/19 08:18:22;;;;;;;0.00;0.00;;;;;;;-145.48;100.00;64539.38;5829285;30;20044;-91
2023/09/19 08:22:24;;;;;;;0.10;0.10;;;;;;;-145.48;100.00;64539.38;5842755;30;20049;-90
2023/09/19 08:26:27;;;;;;;0.00;0.00;;;;;;;-145.48;100.00;64539.38;5833669;30;20053;-90
2023/09/19 08:30:30;;;;;;;0.00;0.00;;;;;;;-145.48;100.00;64539.38;5811884;30;20058;-91
2023/09/19 08:34:38;;;;;;;0.15;0.15;;;;;;;-145.48;100.00;64539.38;5845972;30;20049;-91
2023/09/19 08:38:39;;;;;;;0.05;0.00;;;;;;;-145.48;100.00;64539.38;5826834;30;20049;-91
2023/09/19 08:42:53;;;;;;;0.00;0.00;;;;;;;-145.48;100.00;64539.38;5847569;30;20049;-91
2023/09/19 08:47:14;;;;;;;0.00;0.00;;;;;;;-145.48;100.00;64539.38;5846768;30;20061;-92
2023/09/19 08:51:25;;;;;;;0.00;0.00;;;;;;;-145.48;100.00;64539.38;5843592;30;20209;-90
2023/09/19 08:55:31;;;;;;;0.08;0.08;;;;;;;-145.48;100.00;64539.38;5846349;30;20052;-90
2023/09/19 08:59:37;;;;;;;0.10;0.10;;;;;;;-145.48;100.00;64539.38;5840114;30;20443;-91
2023/09/19 09:03:40;;;;;;;0.00;0.00;;;;;;;-145.48;100.00;64539.38;5837684;30;20051;-91
2023/09/19 09:07:43;;;;;;;0.00;0.00;;;;;;;-145.48;100.00;64539.38;5842112;30;20497;-91
2023/09/19 09:11:44;;;;;;;0.13;0.10;;;;;;;-145.48;100.00;64539.38;5827953;30;20827;-91
2023/09/19 09:15:45;;;;;;;0.00;0.00;;;;;;;-145.48;100.00;64539.38;5821653;30;20503;-91
2023/09/19 09:19:47;;;;;;;0.00;0.00;;;;;;;-145.48;100.00;64539.38;5826868;30;20041;-91
2023/09/19 09:23:53;;;;;;;0.65;0.10;;;;;;;-145.48;100.00;64539.38;5824681;30;20052;-90
2023/09/19 09:28:01;;;;;;;0.00;0.00;;;;;;;-145.48;100.00;64539.38;5843983;30;20066;-90
2023/09/19 09:32:16;;;;;;;0.20;0.17;;;;;;;-145.48;100.00;64539.38;5821407;30;20049;-89
2023/09/19 09:36:33;;;;;;;0.13;0.13;;;;;;;-145.48;100.00;64539.38;5831019;30;20041;-90
2023/09/19 09:41:00;;;;;;;0.10;0.10;;;;;;;-145.48;100.00;64539.38;5815743;30;20059;-93
2023/09/19 09:45:28;;;;;;;0.10;0.10;;;;;;;-145.48;100.00;64539.38;5843039;30;20049;-90
2023/09/19 09:49:33;;;;;;;0.10;0.10;;;;;;;-145.48;100.00;64539.38;5842274;30;20057;-89
2023/09/19 09:53:45;;;;;;;0.00;0.00;;;;;;;-145.48;100.00;64539.38;5817089;30;20126;-88
2023/09/19 09:58:13;;;;;;;1.65;0.10;;;;;;;-145.48;100.00;64539.38;5846666;30;20393;-90
2023/09/19 10:02:36;;;;;;;0.00;0.00;;;;;;;-145.48;100.00;64539.38;5821226;30;20670;-89
2023/09/19 10:06:51;;;;;;;0.00;0.00;;;;;;;-145.48;100.00;64539.38;5833746;30;20057;-89
2023/09/19 10:15:16;;;;;;;0.10;0.10;;;;;;;-145.48;100.00;64539.38;5840763;30;20045;-89
2023/09/19 10:19:57;;;;;;;0.10;0.10;;;;;;;-145.48;100.00;64539.38;5835126;30;20429;-88
2023/09/19 10:23:59;;;;;;;0.00;0.00;;;;;;;-145.48;100.00;64539.38;5833068;30;20057;-88
2023/09/19 10:28:03;;;;;;;0.03;0.03;;;;;;;-145.48;100.00;64539.38;5849157;30;20096;-88
2023/09/19 10:32:05;;;;;;;0.80;0.20;;;;;;;-145.48;100.00;64539.38;5827719;30;20060;-89
2023/09/19 10:36:06;;;;;;;0.00;0.00;;;;;;;-145.48;100.00;64539.38;5845728;30;20060;-88
2023/09/19 10:40:17;;;;;;;0.00;0.00;;;;;;;-145.48;100.00;64539.38;5842047;30;20047;-87
2023/09/19 10:44:23;;;;;;;0.00;0.00;;;;;;;-145.48;100.00;64539.38;5845094;30;20116;-88
2023/09/19 10:48:31;;;;;;;0.05;0.05;;;;;;;-145.48;100.00;64539.38;5850110;30;20053;-88
2023/09/19 10:52:40;;;;;;;0.00;0.00;;;;;;;-145.48;100.00;64539.38;5848255;30;20063;-88
2023/09/19 10:56:50;;;;;;;0.05;0.05;;;;;;;-145.48;100.00;64539.38;5849257;30;20094;-88
2023/09/19 11:01:11;;;;;;;0.00;0.00;;;;;;;-145.48;100.00;64539.38;5839941;30;20056;-88
2023/09/19 11:05:30;;;;;;;0.90;0.10;;;;;;;-145.48;100.00;64539.38;5843428;30;20780;-87
2023/09/19 11:10:03;;;;;;;0.00;0.00;;;;;;;-145.48;100.00;64539.38;5832669;30;20045;-88
2023/09/19 11:14:28;;;;;;;0.00;0.00;;;;;;;-145.48;100.00;64539.38;5847101;30;20053;-88
2023/09/19 11:18:41;;;;;;;0.10;0.10;;;;;;;-145.48;100.00;64539.38;5847205;30;20934;-88
2023/09/19 11:22:52;;;;;;;0.00;0.00;;;;;;;-145.48;100.00;64539.38;5846925;30;20053;-87
2023/09/19 11:27:08;;;;;;;0.98;0.10;;;;;;;-145.48;100.00;64539.38;5842726;30;20060;-87
2023/09/19 11:31:46;;;;;;;0.00;0.00;;;;;;;-145.48;100.00;64539.38;5840505;30;20075;-87
2023/09/19 11:36:00;;;;;;;0.15;0.15;;;;;;;-145.48;100.00;64539.38;5824371;30;20057;-87
2023/09/19 11:40:21;;;;;;;0.00;0.00;;;;;;;-145.48;100.00;64539.38;5838467;30;20060;-87
2023/09/19 11:44:34;;;;;;;0.75;0.55;;;;;;;-145.48;100.00;64539.38;5837488;30;20057;-87
2023/09/19 11:48:35;;;;;;;0.00;0.00;;;;;;;-145.48;100.00;64539.38;5843314;30;20076;-87
2023/09/19 11:52:44;;;;;;;0.17;0.10;;;;;;;-145.48;100.00;64539.38;5834835;30;20053;-88
2023/09/19 11:56:45;;;;;;;0.00;0.00;;;;;;;-145.48;100.00;64539.38;5829634;30;20055;-88
2023/09/19 12:00:53;;;;;;;0.00;0.00;;;;;;;-145.48;100.00;64539.38;5845609;30;20430;-87
2023/09/19 12:04:55;;;;;;;0.43;0.10;;;;;;;-145.48;100.00;64539.38;5843148;30;20045;-88
2023/09/19 12:08:58;;;;;;;0.93;0.25;;;;;;;-145.48;100.00;64539.38;5846604;30;20608;-87
2023/09/19 12:13:02;;;;;;;0.00;0.00;;;;;;;-145.48;100.00;64539.38;5816106;30;20065;-87
2023/09/19 12:17:10;;;;;;;0.00;0.00;;;;;;;-145.48;100.00;64539.38;5847509;30;20135;-86
2023/09/19 12:21:22;;;;;;;0.32;0.32;;;;;;;-145.48;100.00;64539.38;5846168;30;20414;-87
2023/09/19 12:25:25;;;;;;;0.20;0.20;;;;;;;-145.48;100.00;64539.38;5844322;30;20463;-88
2023/09/19 12:29:29;;;;;;;2.05;0.60;;;;;;;-145.48;100.00;64539.38;5835123;30;20524;-87
2023/09/19 12:33:36;;;;;;;0.10;0.10;;;;;;;-145.48;100.00;64539.38;5833347;30;20045;-87
2023/09/19 12:37:45;;;;;;;0.00;0.00;;;;;;;-145.48;100.00;64539.38;5815372;30;20506;-87
2023/09/19 12:41:47;;;;;;;0.00;0.00;;;;;;;-145.48;100.00;64539.38;5834082;30;20128;-87
2023/09/19 12:45:49;;;;;;;0.00;0.00;;;;;;;-145.48;100.00;64539.38;5840016;30;20049;-87
2023/09/19 12:50:25;;;;;;;0.20;0.20;;;;;;;-145.48;100.00;64539.38;5836858;30;20334;-88
2023/09/19 12:54:38;;;;;;;0.08;0.08;;;;;;;-145.48;100.00;64539.38;5834686;30;20111;-88
2023/09/19 12:58:53;;;;;;;0.05;0.05;;;;;;;-145.48;100.00;64539.38;5824224;30;20485;-87
2023/09/19 13:03:32;;;;;;;0.70;0.22;;;;;;;-145.48;100.00;64539.38;5843450;30;20497;-88
2023/09/19 13:07:43;;;;;;;0.10;0.10;;;;;;;-145.48;100.00;64539.38;5839079;30;20561;-87
2023/09/19 13:12:03;;;;;;;0.77;0.13;;;;;;;-145.48;100.00;64539.38;5840495;30;20552;-88
2023/09/19 13:16:14;;;;;;;0.10;0.10;;;;;;;-145.48;100.00;64539.38;5836940;30;20052;-88
2023/09/19 13:20:39;;;;;;;0.00;0.00;;;;;;;-145.48;100.00;64539.38;5833602;30;20053;-88
2023/09/19 13:24:41;;;;;;;0.08;0.08;;;;;;;-145.48;100.00;64539.38;5831634;30;20042;-88
2023/09/19 13:28:49;;;;;;;0.10;0.10;;;;;;;-145.48;100.00;64539.38;5844237;30;20041;-87
2023/09/19 13:32:52;;;;;;;0.32;0.32;;;;;;;-145.48;100.00;64539.38;5832130;30;20072;-86
2023/09/19 13:36:53;;;;;;;0.00;0.00;;;;;;;-145.48;100.00;64539.38;5829189;30;20093;-87
2023/09/19 13:40:53;;;;;;;0.13;0.13;;;;;;;-145.48;100.00;64539.38;5839940;30;20233;-88
2023/09/19 13:44:57;;;;;;;0.28;0.22;;;;;;;-145.48;100.00;64539.38;5827549;30;20880;-88
2023/09/19 13:48:59;;;;;;;0.00;0.00;;;;;;;-145.48;100.00;64539.38;5837091;30;20053;-88
2023/09/19 13:53:03;;;;;;;0.00;0.00;;;;;;;-145.48;100.00;64539.38;5830581;30;20756;-88
2023/09/19 13:57:05;;;;;;;0.10;0.10;;;;;;;-145.48;100.00;64539.38;5836864;30;20128;-88
2023/09/19 14:01:12;;;;;;;0.15;0.15;;;;;;;-145.48;100.00;64539.38;5814625;30;20398;-88
2023/09/19 14:05:16;;;;;;;0.00;0.00;;;;;;;-145.48;100.00;64539.38;5829614;30;20084;-88
2023/09/19 14:09:19;;;;;;;0.20;0.20;;;;;;;-145.48;100.00;64539.38;5841459;30;20120;-89
2023/09/19 14:13:20;;;;;;;0.00;0.00;;;;;;;-145.48;100.00;64539.38;5840213;30;20110;-88
2023/09/19 14:17:22;;;;;;;0.03;0.03;;;;;;;-145.48;100.00;64539.38;5841021;30;20517;-88
2023/09/19 14:21:24;;;;;;;0.00;0.00;;;;;;;-145.48;100.00;64539.38;5839902;30;20077;-88
2023/09/19 14:25:26;;;;;;;0.20;0.20;;;;;;;-145.48;100.00;64539.38;5837146;30;20049;-88
2023/09/19 14:29:29;;;;;;;0.05;0.05;;;;;;;-145.48;100.00;64539.38;5842546;30;20045;-87
2023/09/19 14:33:31;;;;;;;0.10;0.10;;;;;;;-145.48;100.00;64539.38;5834357;30;20057;-88
2023/09/19 14:37:32;;;;;;;0.43;0.28;;;;;;;-145.48;100.00;64539.38;5834527;30;20493;-88
2023/09/19 14:41:33;;;;;;;0.20;0.20;;;;;;;-145.48;100.00;64539.38;5833515;30;20196;-87
2023/09/19 14:45:35;;;;;;;0.00;0.00;;;;;;;-145.48;100.00;64539.38;5839845;30;20128;-87
2023/09/19 14:49:42;;;;;;;0.10;0.10;;;;;;;-145.48;100.00;64539.38;5839257;30;20045;-88
2023/09/19 14:53:42;;;;;;;0.08;0.08;;;;;;;-145.48;100.00;64539.38;5836666;30;20053;-88
2023/09/19 14:57:48;;;;;;;;;;;;;;;-145.48;100.00;64539.38;5838671;30;20049;-88
2023/09/19 15:01:50;;;;;;;0.10;0.10;;;;;;;-145.48;100.00;64539.38;5840753;30;19937;-88
2023/09/19 15:05:51;;;;;;;0.10;0.10;;;;;;;-145.48;100.00;64539.38;5821185;30;20056;-88
2023/09/19 15:09:52;;;;;;;0.20;0.20;;;;;;;-145.48;100.00;64539.38;5832695;30;20052;-88
2023/09/19 15:13:54;;;;;;;;;;;;;;;-145.48;100.00;64539.38;5843700;30;20064;-88
2023/09/19 15:17:54;;;;;;;0.52;0.17;;;;;;;-145.48;100.00;64539.38;5828639;30;19931;-88
2023/09/19 15:21:55;;;;;;;;;;;;;;;-145.48;100.00;64539.38;5829459;30;20140;-88
2023/09/19 15:25:57;;;;;;;0.15;0.15;;;;;;;-145.48;100.00;64539.38;5818993;30;19934;-88
2023/09/19 15:30:02;;;;;;;0.03;0.03;;;;;;;-145.48;100.00;64539.38;5842955;30;20505;-88
2023/09/19 15:34:03;;;;;;;0.22;0.22;;;;;;;-145.48;100.00;64539.38;5826005;30;20092;-88
2023/09/19 15:38:07;;;;;;;0.17;0.00;;;;;;;-145.48;100.00;64539.38;5835533;30;20157;-88
2023/09/19 15:42:10;;;;;;;0.03;0.03;;;;;;;-145.48;100.00;64539.38;5842025;30;20052;-88
2023/09/19 15:46:11;;;;;;;0.00;0.00;;;;;;;-145.48;100.00;64539.38;5838612;30;20053;-88
2023/09/19 15:50:15;;;;;;;0.75;0.35;;;;;;;-145.48;100.00;64539.38;5840119;30;20049;-88
2023/09/19 15:54:15;;;;;;;0.08;0.03;;;;;;;-145.48;100.00;64539.38;5838551;30;20501;-88
2023/09/19 15:58:16;;;;;;;;;;;;;;;-145.48;100.00;64539.38;5836619;30;20471;-88
2023/09/19 16:02:17;;;;;;;0.17;0.17;;;;;;;-145.48;100.00;64539.38;5843278;30;19938;-88
2023/09/19 16:06:19;;;;;;;0.00;0.00;;;;;;;-145.48;100.00;64539.38;5838360;30;20091;-88
2023/09/19 16:10:21;;;;;;;0.90;0.03;;;;;;;-145.48;100.00;64539.38;5833551;30;20186;-88
2023/09/19 16:14:30;;;;;;;0.10;0.10;;;;;;;-145.48;100.00;64539.38;5814599;30;20254;-87
2023/09/19 16:18:37;;;;;;;0.00;0.00;;;;;;;-145.48;100.00;64539.38;5824972;30;20148;-88
2023/09/19 16:22:40;;;;;;;0.10;0.10;;;;;;;-145.48;100.00;64539.38;5815046;30;20154;-88
2023/09/19 16:26:40;;;;;;;0.00;0.00;;;;;;;-145.48;100.00;64539.38;5836176;30;20068;-88
2023/09/19 16:30:41;;;;;;;0.20;0.20;;;;;;;-145.48;100.00;64539.38;5820900;30;20060;-88
2023/09/19 16:34:41;;;;;;;;;;;;;;;-145.48;100.00;64539.38;5835570;30;20505;-87
2023/09/19 16:38:43;;;;;;;0.05;0.05;;;;;;;-145.48;100.00;64539.38;5839903;30;20021;-88
2023/09/19 16:42:43;;;;;;;0.10;0.03;;;;;;;-145.48;100.00;64539.38;5837216;30;20056;-88
2023/09/19 16:46:53;;;;;;;0.00;0.00;;;;;;;-145.48;100.00;64539.38;5823713;30;20052;-88
2023/09/19 16:50:54;;;;;;;0.68;0.17;;;;;;;-145.48;100.00;64539.38;5840351;30;20061;-88
2023/09/19 16:54:54;;;;;;;0.05;0.05;;;;;;;-145.48;100.00;64539.38;5834618;30;20167;-88
2023/09/19 16:58:58;;;;;;;0.00;0.00;;;;;;;-145.48;100.00;64539.38;5841943;30;20053;-89
2023/09/19 17:03:00;;;;;;;0.10;0.10;;;;;;;-145.48;100.00;64539.38;5837515;30;20168;-88
2023/09/19 17:07:01;;;;;;;0.00;0.00;;;;;;;-145.48;100.00;64539.38;5838191;30;20049;-88
2023/09/19 17:11:02;;;;;;;0.00;0.00;;;;;;;-145.48;100.00;64539.38;5835651;30;20138;-88
2023/09/19 17:15:04;;;;;;;0.00;0.00;;;;;;;-145.48;100.00;64539.38;5835915;30;20508;-88
2023/09/19 17:19:05;;;;;;;0.20;0.20;;;;;;;-145.48;100.00;64539.38;5834108;30;20050;-88
2023/09/19 17:23:06;;;;;;;0.00;0.00;;;;;;;-145.48;100.00;64539.38;5833401;30;20049;-88
2023/09/19 17:27:07;;;;;;;0.10;0.10;;;;;;;-145.48;100.00;64539.38;5839995;30;20757;-88
2023/09/19 17:31:12;;;;;;;0.00;0.00;;;;;;;-145.48;100.00;64539.38;5837978;30;20373;-88
2023/09/19 17:35:17;;;;;;;0.00;0.00;;;;;;;-145.48;100.00;64539.38;5834342;30;20377;-88
2023/09/19 17:39:19;;;;;;;0.05;0.00;;;;;;;-145.48;100.00;64539.38;5836693;30;20587;-88
2023/09/19 17:43:19;;;;;;;;;;;;;;;-145.48;100.00;64539.38;5821430;30;20053;-88
2023/09/19 17:47:22;;;;;;;0.00;0.00;;;;;;;-145.48;100.00;64539.38;5838210;30;19939;-88
2023/09/19 17:51:23;;;;;;;0.20;0.10;;;;;;;-145.48;100.00;64539.38;5836368;30;20049;-88
2023/09/19 17:55:23;;;;;;;0.00;0.00;;;;;;;-145.48;100.00;64539.38;5838634;30;20045;-88
2023/09/19 17:59:23;;;;;;;0.00;0.00;;;;;;;-145.48;100.00;64539.38;5840775;30;20080;-88
2023/09/19 18:03:25;;;;;;;0.35;0.20;;;;;;;-145.48;100.00;64539.38;5835237;30;20049;-88
2023/09/19 18:07:26;;;;;;;0.10;0.10;;;;;;;-145.48;100.00;64539.38;5837218;30;20049;-88
2023/09/19 18:11:28;;;;;;;0.00;0.00;;;;;;;-145.48;100.00;64539.38;5836745;30;20136;-88
2023/09/19 18:15:33;;;;;;;0.10;0.10;;;;;;;-145.48;100.00;64539.38;5836959;30;20136;-88
2023/09/19 18:19:33;;;;;;;0.10;0.10;;;;;;;-145.48;100.00;64539.38;5832343;30;20501;-87
2023/09/19 18:23:34;;;;;;;0.20;0.20;;;;;;;-145.48;100.00;64539.38;5835861;30;20095;-88
2023/09/19 18:27:35;;;;;;;;;;;;;;;-145.48;100.00;64539.38;5846526;30;20041;-88
2023/09/19 18:31:36;;;;;;;;;;;;;;;-145.48;100.00;64539.38;5844936;30;20026;-87
2023/09/19 18:35:37;;;;;;;0.00;0.00;;;;;;;-145.48;100.00;64539.38;5837562;30;20326;-88
2023/09/19 18:39:38;;;;;;;0.25;0.20;;;;;;;-145.48;100.00;64539.38;5842753;30;20574;-88
2023/09/19 18:43:38;;;;;;;;;;;;;;;-145.48;100.00;64539.38;5828073;30;20053;-88